Flugplatz Lachen-Speyerdorf

Für EDRL sind keine METAR/TAF Berichte vorhanden.
Es werden die Flugwettermeldungen vom Flugplatz Mannheim-City in 26 km Entfernung angezeigt.

Bericht für EDFM

vom 14.12. um 00:50 UTC

Wind 11 kt aus 200°

Sichtweite 10 km oder mehr

aufgelockert bewölkt in 4600 ft

bedeckt in 11000 ft

Temperatur 6.0°C

Taupunkt 2.0°C

Luftfeuchtigkeit 75%

Luftdruck 991 hPa

EDFM 140050Z 20011KT 170V240 9999 SCT046 OVC110 06/02 Q0991
Keine Prognose (TAF) verfügbar.
Impressum